Weather observations for the past three days for
Watsonville, Watsonville Municipal Airport
Metric (Imperial)
Date Time (pdt) Wind (kph) Vis. (km) Weather Sky Cond. Temperature (ºC) Relative Humidity Wind Chill (°C) Heat Index (°C) Pressure Precipitation (cm)
Air Dwpt 6 hour altimeter (cm) sea level (mb) 1 hr 3 hr 6 hr
Max. Min.
08 05:53 Calm 11.27 Overcast OVC005 11.7 10.6 93% 76.43 1018.9
08 04:53 N 6 8.05 Fog/Mist OVC004 11.7 10.6 12.2 11.1 93% 76.4 1018.6
08 03:53 NW 6 11.27 Overcast OVC006 11.7 10.6 93% 76.4 1018.5
08 02:53 Calm 12.87 Overcast OVC003 11.7 10.6 93% 76.38 1018.3
08 01:53 Calm 16.09 Overcast OVC005 11.7 10.6 93% 76.4 1018.5
08 00:53 E 6 16.09 Overcast OVC006 12.2 10.6 90% 76.4 1018.6
07 23:53 Calm 16.09 Overcast OVC007 12.2 10 87% 76.38 1018.3
07 22:53 E 6 16.09 Mostly Cloudy BKN008 11.7 10 18.9 11.7 89% 76.38 1018.3
07 21:53 E 9 16.09 Mostly Cloudy BKN008 12.2 10 87% 76.38 1018.2
07 20:53 SE 11 16.09 Mostly Cloudy BKN008 12.2 10.6 90% 76.35 1017.8
07 19:53 SE 15 16.09 Fair CLR 12.8 10.6 87% 76.3 1017.3
07 18:53 SE 19 16.09 Fair CLR 15 11.1 78% 76.3 1017.1
07 17:53 SE 15 16.09 Fair CLR 18.3 11.7 66% 76.28 1017.0
07 16:53 S 11 16.09 Fair CLR 18.9 11.7 21.1 17.8 63% 76.28 1016.9
07 15:53 S 13 16.09 Fair CLR 20.6 12.8 61% 76.3 1017.1
07 14:53 S 13 16.09 Fair CLR 20.6 12.8 61% 76.33 1017.5
07 13:53 SW 13 16.09 Fair CLR 20.6 12.8 61% 76.35 1017.8
07 12:53 SW 13 16.09 Fair CLR 19.4 12.8 66% 76.38 1018.1
07 11:53 W 11 16.09 Fair CLR 19.4 13.3 68% 76.4 1018.5
07 10:53 Calm 16.09 Fair CLR 18.3 12.2 18.3 12.2 68% 76.43 1018.9
07 09:53 Calm 16.09 Mostly Cloudy BKN008 15 11.7 81% 76.45 1019.1
07 08:53 Calm 16.09 Overcast OVC004 12.8 11.7 93% 76.45 1019.4
07 07:53 Calm 8.05 Fog/Mist OVC003 12.2 11.1 93% 76.45 1019.4
07 06:53 Calm 11.27 Overcast OVC003 12.2 11.1 93% 76.45 1019.2
07 05:53 NE 7 12.87 Overcast OVC004 12.8 11.7 93% 76.43 1018.8
07 04:53 Calm 11.27 Overcast OVC004 12.8 11.7 13.3 12.2 93% 76.43 1018.8
07 03:53 Calm 12.87 Overcast OVC003 12.2 11.1 93% 76.43 1019.0
07 02:53 NW 6 16.09 Overcast OVC005 12.2 11.1 93% 76.43 1018.9
07 01:53 Calm 16.09 Overcast OVC006 12.2 11.1 93% 76.45 1019.2
07 00:53 Calm 16.09 Overcast OVC007 12.8 11.1 90% 76.48 1019.5
06 23:53 SE 7 16.09 Overcast OVC008 12.8 11.1 90% 76.48 1019.7
06 22:53 SE 6 16.09 Overcast OVC008 13.3 11.1 21.7 13.3 87% 76.5 1019.9
06 21:53 SE 11 16.09 Overcast OVC008 13.3 11.1 87% 76.48 1019.7
06 20:53 SE 11 16.09 Fair CLR 13.3 11.7 90% 76.45 1019.2
06 19:53 SE 15 16.09 Fair CLR 15 12.2 83% 76.4 1018.5
06 18:53 SE 13 16.09 Fair CLR 18.9 12.8 68% 76.38 1018.1
06 17:53 SW 7 16.09 Fair CLR 21.1 12.8 59% 76.35 1017.9
06 16:53 SW 11 16.09 Fair CLR 21.1 11.1 22.8 19.4 53% 76.35 1017.7
06 15:53 W 15 16.09 Fair CLR 22.2 11.7 52% 76.38 1018.1
06 14:53 W 19 16.09 Fair CLR 21.7 11.7 53% 76.4 1018.7
06 13:53 W 15 16.09 Fair CLR 22.2 11.7 52% 76.43 1019.0
06 12:53 SW 17 16.09 Fair CLR 21.7 12.2 55% 76.45 1019.4
06 11:53 W 15 16.09 Fair CLR 20 11.7 59% 76.5 1020.0
06 10:53 NE 6 16.09 Fair CLR 19.4 11.1 20 12.8 59% 76.5 1020.0
06 09:53 Calm 16.09 A Few Clouds FEW025 18.3 11.1 63% 76.53 1020.2
06 08:53 Calm 16.09 Fair CLR 16.1 11.1 72% 76.56 1020.5
06 07:53 Calm 16.09 Fair CLR 14.4 10.6 78% 76.56 1020.6
06 06:53 Calm 16.09 Mostly Cloudy BKN030 13.3 10.6 84% 76.53 1020.3
06 05:53 Calm 16.09 Overcast OVC029 12.8 10.6 87% 76.5 1019.8
06 04:53 Calm 16.09 Overcast OVC030 12.8 10.6 13.9 12.8 87% 76.45 1019.4
06 03:53 Calm 16.09 Overcast OVC030 12.8 10.6 87% 76.45 1019.2
06 02:53 NW 6 16.09 Overcast OVC032 12.8 10.6 87% 76.45 1019.2
06 01:53 Calm 16.09 Overcast OVC033 12.8 10.6 87% 76.45 1019.2
06 00:53 Calm 16.09 Overcast OVC034 13.3 11.1 87% 76.45 1019.1
05 23:53 E 6 16.09 Overcast OVC035 13.9 11.1 83% 76.43 1018.8
05 22:53 Calm 16.09 Overcast OVC037 13.9 11.1 15 13.9 83% 76.38 1018.3
05 21:53 Calm 16.09 Overcast OVC039 13.9 11.1 83% 76.38 1018.1
05 20:53 NE 6 16.09 Overcast OVC041 14.4 11.1 81% 76.33 1017.5
05 19:53 Calm 16.09 Overcast OVC040 14.4 11.1 81% 76.25 1016.6
05 18:53 Calm 16.09 Overcast FEW026 OVC039 15 10 72% 76.25 1016.6
05 17:53 SW 6 16.09 Overcast OVC027 15 10 72% 76.25 1016.5
05 16:53 SW 6 16.09 Overcast OVC027 15 10.6 16.1 13.9 75% 76.23 1016.3
05 15:53 W 7 16.09 Overcast FEW013 OVC025 15 11.1 78% 76.25 1016.5
05 14:53 W 11 16.09 Overcast OVC027 15 11.1 78% 76.25 1016.6
05 13:53 SW 13 16.09 Overcast SCT016 OVC034 15.6 10.6 72% 76.28 1016.9
05 12:53 W 15 16.09 Overcast FEW014 OVC029 14.4 10 75% 76.3 1017.1
05 11:53 SW 13 16.09 Overcast OVC025 13.9 10 78% 76.3 1017.0
05 10:53 SW 7 16.09 Overcast FEW016 BKN024 OVC050 15 8.9 15 11.1 67% 76.25 1016.6
05 09:53 Calm 16.09 Overcast BKN015 BKN026 OVC046 13.9 10 78% 76.25 1016.4
05 08:53 Calm 16.09 Overcast OVC012 12.8 10 83% 76.23 1016.1
05 07:53 Calm 16.09 Overcast SCT015 OVC033 12.8 10 83% 76.2 1015.8
05 06:53 Calm 16.09 Overcast FEW014 OVC080 11.7 10 89% 76.17 1015.4
Date Time (pdt) Wind (kph) Vis. (km) Weather Sky Cond. Air Dwpt Max. Min. Relative Humidity Wind Chill (°C) Heat Index (°C) altimeter (cm) sea level (mb) 1 hr 3 hr 6 hr
6 hour
Temperature (ºC) Pressure Precipitation (cm)